• Join FlightAware (Why Join?)
  • Login
  • US Flag 
10:10AM EST


 

Airport Tracker/Info


-or-


 

Live Flight TrackerFlight Track Log ✈ USC110 ✈ 19-Jun-2013 ✈ KCLT - KLCK

Flight Track Log - Related Links

Times and Time Zones

All times are in EDT time to prevent confusion due to time zone crossing. See the USC110 flight status page for this flight to view local times or setup timezone preferences in your user account.

Time Position Orientation Groundspeed Altitude Reporting Facility
EDT Latitude Longitude Course Direction KTS MPH feet Rate Location/Type
01:10AM 35.2222 -80.9397 347° North 72 83 1,500  Level Atlanta Center
01:12AM 35.2536 -80.9486 347° North 95 109 3,200 1,320 Climbing Atlanta Center
01:13AM 35.2728 -80.9581 338° Northwest 88 101 4,700 1,320 Climbing Atlanta Center
01:14AM 35.2958 -80.9672 342° North 89 102 5,800 1,080 Climbing Atlanta Center
01:16AM 35.3486 -80.9833 346° North 92 106 8,000 660 Climbing Atlanta Center
01:17AM 35.3908 -81.0019 340° North 123 142 7,900 -60 Descending Atlanta Center
01:18AM 35.4369 -81.0156 346° North 159 183 7,900  Level Atlanta Center
01:19AM 35.4772 -81.0369 337° Northwest 164 189 7,900  Level Atlanta Center
01:20AM 35.5214 -81.0558 341° North 164 189 7,900  Level Atlanta Center
01:21AM 35.5656 -81.0747 341° North 169 194 7,900  Level Atlanta Center
01:22AM 35.6097 -81.0908 343° North 169 194 7,900  Level Atlanta Center
01:23AM 35.6542 -81.1097 341° North 169 194 7,900  Level Atlanta Center
01:24AM 35.6983 -81.1286 341° North 169 194 7,900  Level Atlanta Center
01:25AM 35.7383 -81.1478 339° North 169 194 7,900  Level Atlanta Center
01:26AM 35.7847 -81.1639 344° North 169 194 7,900  Level Atlanta Center
01:27AM 35.8269 -81.1806 342° North 164 189 7,900  Level Atlanta Center
01:28AM 35.8689 -81.1969 342° North 164 189 7,900  Level Atlanta Center
01:29AM 35.9111 -81.2161 340° North 159 183 8,000  Climbing Atlanta Center
01:30AM 35.9511 -81.2325 342° North 153 176 7,900  Descending Atlanta Center
01:31AM 35.9953 -81.2517 341° North 158 182 8,000  Climbing Atlanta Center
01:32AM 36.0375 -81.2681 343° North 158 182 8,000  Level Atlanta Center
01:33AM 36.0753 -81.2872 338° Northwest 158 182 8,000  Level Atlanta Center
01:34AM 36.1194 -81.3039 343° North 158 182 8,000  Level Atlanta Center
01:35AM 36.1617 -81.3203 343° North 158 182 8,100  Climbing Atlanta Center
01:36AM 36.2039 -81.3369 342° North 153 176 8,100 -60 Level Atlanta Center
01:37AM 36.2458 -81.3561 340° North 153 176 8,000  Descending Atlanta Center
01:38AM 36.2858 -81.3728 341° North 153 176 8,100  Climbing Atlanta Center
01:39AM 36.3300 -81.3919 341° North 153 176 8,100 -60 Level Atlanta Center
01:40AM 36.3764 -81.4086 344° North 153 176 8,000 -60 Descending Atlanta Center
01:41AM 36.4164 -81.4306 336° Northwest 153 176 8,000  Level Atlanta Center
01:42AM 36.4583 -81.4444 345° North 153 176 8,100  Climbing Atlanta Center
01:43AM 36.5025 -81.4611 343° North 153 176 8,000 -60 Descending Atlanta Center
01:44AM 36.5425 -81.4781 341° North 153 176 8,000  Level Atlanta Center
01:46AM 36.6428 -81.5231 340° North 160 184 8,000  Level Indianapolis Center
01:47AM 36.6856 -81.5411 341° North 162 186 8,100  Climbing Indianapolis Center
01:48AM 36.7258 -81.5567 343° North 156 180 8,000 -60 Descending Indianapolis Center
01:49AM 36.7672 -81.5739 342° North 155 178 8,000  Level Indianapolis Center
01:50AM 36.8156 -81.5956 340° North 158 182 8,000  Level Indianapolis Center
01:51AM 36.8572 -81.6117 343° North 157 181 8,000  Level Indianapolis Center
01:52AM 36.8978 -81.6311 339° North 157 181 8,000  Level Indianapolis Center
01:53AM 36.9422 -81.6483 343° North 162 186 8,000  Level Indianapolis Center
01:54AM 36.9833 -81.6661 341° North 159 183 8,000  Level Indianapolis Center
01:55AM 37.0258 -81.6831 342° North 159 183 8,000  Level Indianapolis Center
01:56AM 37.0686 -81.7008 342° North 161 185 8,000  Level Indianapolis Center
01:57AM 37.1097 -81.7189 341° North 158 182 8,000  Level Indianapolis Center
01:58AM 37.1517 -81.7378 340° North 159 183 8,000  Level Indianapolis Center
01:59AM 37.1939 -81.7550 342° North 160 184 8,000  Level Indianapolis Center
02:00AM 37.2342 -81.7739 340° North 157 181 8,000  Level Indianapolis Center
02:01AM 37.2761 -81.7906 342° North 157 181 8,000  Level Indianapolis Center
02:02AM 37.3172 -81.8092 340° North 156 180 8,000  Level Indianapolis Center
02:03AM 37.3594 -81.8258 343° North 158 182 8,000  Level Indianapolis Center
02:04AM 37.4011 -81.8461 339° North 160 184 8,000  Level Indianapolis Center
02:05AM 37.4428 -81.8628 342° North 157 181 8,000  Level Indianapolis Center
02:06AM 37.4847 -81.8811 341° North 159 183 8,000  Level Indianapolis Center
02:07AM 37.5269 -81.8967 344° North 157 181 8,000  Level Indianapolis Center
02:08AM 37.5692 -81.9183 338° Northwest 161 185 8,000  Level Indianapolis Center
02:09AM 37.6106 -81.9367 341° North 159 183 8,000  Level Indianapolis Center
02:10AM 37.6533 -81.9536 343° North 160 184 8,000  Level Indianapolis Center
02:11AM 37.6956 -81.9722 341° North 160 184 8,000  Level Indianapolis Center
02:12AM 37.7381 -81.9903 341° North 160 184 8,000  Level Indianapolis Center
02:13AM 37.7803 -82.0092 341° North 161 185 8,000  Level Indianapolis Center
02:14AM 37.8225 -82.0286 340° North 163 188 8,000 -60 Level Indianapolis Center
02:15AM 37.8639 -82.0467 341° North 165 190 7,900 -60 Descending Indianapolis Center
02:16AM 37.9069 -82.0656 341° North 164 189 7,900  Level Indianapolis Center
02:17AM 37.9489 -82.0853 340° North 162 186 7,900  Level Indianapolis Center
02:18AM 37.9917 -82.1042 341° North 162 186 7,900  Level Indianapolis Center
02:19AM 38.0350 -82.1233 341° North 164 189 7,900  Level Indianapolis Center
02:20AM 38.0783 -82.1419 341° North 164 189 7,900  Level Indianapolis Center
02:21AM 38.1194 -82.1583 343° North 157 181 7,900  Level Indianapolis Center
02:22AM 38.1611 -82.1781 340° North 158 182 7,900  Level Indianapolis Center
02:23AM 38.2031 -82.1958 342° North 159 183 7,900  Level Indianapolis Center
02:24AM 38.2450 -82.2150 340° North 160 184 7,900  Level Indianapolis Center
02:25AM 38.2867 -82.2331 341° North 158 182 7,900  Level Indianapolis Center
02:26AM 38.3283 -82.2519 340° North 159 183 7,900  Level Indianapolis Center
02:27AM 38.3692 -82.2714 340° North 156 180 7,900  Level Indianapolis Center
02:28AM 38.4114 -82.2897 341° North 159 183 7,900  Level Indianapolis Center
02:29AM 38.4536 -82.3083 341° North 159 183 7,900  Level Indianapolis Center
02:30AM 38.4956 -82.3256 342° North 158 182 7,900  Level Indianapolis Center
02:31AM 38.5367 -82.3453 339° North 158 182 7,900  Level Indianapolis Center
02:32AM 38.5786 -82.3639 341° North 159 183 7,900  Level Indianapolis Center
02:33AM 38.6208 -82.3831 340° North 160 184 7,900  Level Indianapolis Center
02:34AM 38.6622 -82.4011 341° North 158 182 7,900  Level Indianapolis Center
02:35AM 38.7028 -82.4194 341° North 156 180 7,900  Level Indianapolis Center
02:36AM 38.7436 -82.4383 340° North 154 177 7,900  Level Indianapolis Center
02:37AM 38.7850 -82.4556 342° North 156 180 7,900  Level Indianapolis Center
02:38AM 38.8261 -82.4756 339° North 157 181 7,900  Level Indianapolis Center
02:39AM 38.8689 -82.4939 342° North 160 184 7,900  Level Indianapolis Center
02:40AM 38.9092 -82.5117 341° North 155 178 7,900  Level Indianapolis Center
02:41AM 38.9494 -82.5311 339° North 154 177 7,900  Level Indianapolis Center
02:42AM 38.9911 -82.5489 342° North 157 181 7,900  Level Indianapolis Center
02:43AM 39.0308 -82.5681 339° North 155 178 7,900  Level Indianapolis Center
02:44AM 39.0728 -82.5853 342° North 156 180 7,900  Level Indianapolis Center
02:45AM 39.1136 -82.6050 339° North 158 182 7,900  Level Indianapolis Center
02:46AM 39.1536 -82.6267 337° Northwest 157 181 7,900  Level Indianapolis Center
02:47AM 39.1972 -82.6450 342° North 156 180 8,000  Climbing Indianapolis Center
02:48AM 39.2378 -82.6639 340° North 154 177 8,000  Level Indianapolis Center
02:49AM 39.2806 -82.6803 343° North 157 181 8,000  Level Indianapolis Center
02:50AM 39.3114 -82.6975 337° Northwest 157 181 8,000  Level Indianapolis Center
02:51AM 39.3358 -82.7083 341° North 156 180 8,000  Level Indianapolis Center
02:51AM 39.3569 -82.7150 346° North 158 182 8,000  Level Indianapolis Center
02:52AM 39.3972 -82.7347 339° North 155 178 8,000  Level Indianapolis Center
02:53AM 39.4389 -82.7528 341° North 156 180 8,000 -300 Level Indianapolis Center
02:54AM 39.4822 -82.7742 339° North 162 186 7,400 -660 Descending Indianapolis Center
02:55AM 39.5272 -82.7964 339° North 168 193 6,700 -900 Descending Indianapolis Center
02:56AM 39.5772 -82.8169 342° North 181 208 5,700 -960 Descending Indianapolis Center
02:57AM 39.6267 -82.8403 340° North 186 214 4,800 -900 Descending Indianapolis Center
02:58AM 39.6747 -82.8611 342° North 182 209 4,000 -900 Descending Indianapolis Center
02:59AM 39.7208 -82.8883 336° Northwest 180 207 3,100 -900 Descending Indianapolis Center
03:00AM 39.7633 -82.9253 326° Northwest 183 211 2,200 -960 Descending Indianapolis Center
03:01AM 39.7967 -82.9503 330° Northwest 155 178 1,200 -1,020 Descending Indianapolis Center
03:03AM 39.8000 -82.9167 339° North  Level FlightAware Approximate
03:10AM 39.8138 -82.9278 339° North  Level Estimated